createdAt,value
2022-09-05T03:17:14.472Z,7.70
2022-09-05T03:20:12.774Z,7.70
2022-09-05T03:23:13.607Z,7.60
2022-09-05T03:26:35.838Z,7.60
2022-09-05T03:29:43.894Z,7.50
2022-09-05T03:32:49.089Z,7.50
2022-09-05T03:36:18.985Z,7.40
2022-09-05T03:39:24.603Z,7.40
2022-09-05T03:42:14.586Z,7.30
2022-09-05T03:45:00.533Z,7.30
2022-09-05T03:48:28.695Z,7.20
2022-09-05T03:57:07.416Z,7.20
2022-09-05T03:57:19.763Z,7.10
2022-09-05T03:58:02.113Z,7.00
2022-09-05T04:00:48.613Z,7.00
2022-09-05T04:08:08.060Z,6.90
2022-09-05T04:08:13.867Z,6.90
2022-09-05T04:09:43.109Z,6.80
2022-09-05T04:12:16.965Z,6.80
2022-09-05T04:14:50.962Z,6.80
2022-09-05T04:17:28.587Z,6.70
2022-09-05T04:20:03.961Z,6.90
2022-09-05T04:22:42.347Z,6.70
2022-09-05T04:25:17.596Z,6.70
2022-09-05T04:27:53.953Z,6.70
2022-09-05T04:30:38.531Z,6.70
2022-09-05T04:33:22.215Z,6.80
2022-09-05T04:36:18.973Z,7.00
2022-09-05T04:38:47.697Z,6.90
2022-09-05T04:41:17.280Z,7.10
2022-09-05T04:43:51.303Z,7.20
2022-09-05T04:46:24.696Z,7.20
2022-09-05T04:49:02.008Z,7.20
2022-09-05T04:52:07.497Z,7.40
2022-09-05T04:54:44.052Z,7.50
2022-09-05T04:57:25.090Z,7.60
2022-09-05T05:05:42.077Z,7.70
2022-09-05T05:06:12.589Z,7.80
2022-09-05T05:06:17.936Z,7.70
2022-09-05T05:08:52.239Z,7.90
2022-09-05T05:17:29.890Z,8.00
2022-09-05T05:17:59.476Z,8.20
2022-09-05T05:18:09.409Z,8.30
2022-09-05T05:20:42.044Z,8.20
2022-09-05T05:23:17.150Z,8.30
2022-09-05T05:25:57.417Z,8.30
2022-09-05T05:28:38.146Z,8.30
2022-09-05T05:31:14.039Z,8.40
2022-09-05T05:33:45.907Z,8.50
2022-09-05T05:36:19.468Z,8.50
2022-09-05T05:38:53.651Z,8.80
2022-09-05T05:41:28.301Z,9.00
2022-09-05T05:43:57.791Z,9.50
2022-09-05T05:46:35.996Z,10.10
2022-09-05T05:49:46.042Z,10.60
2022-09-05T05:52:35.452Z,11.00
2022-09-05T05:55:51.487Z,11.30
2022-09-05T05:58:34.575Z,11.70
2022-09-05T06:01:46.277Z,12.00
2022-09-05T06:05:04.124Z,12.30
2022-09-05T06:08:01.199Z,12.70
2022-09-05T06:14:57.014Z,13.10
2022-09-05T06:14:59.173Z,13.60
2022-09-05T06:17:36.846Z,14.50
2022-09-05T06:22:10.528Z,15.80
2022-09-05T06:24:10.706Z,17.30
2022-09-05T06:27:12.558Z,18.30
2022-09-05T06:29:55.717Z,19.30
2022-09-05T06:32:37.543Z,19.40
2022-09-05T06:35:30.923Z,19.60
2022-09-05T06:38:30.807Z,20.00
2022-09-05T06:41:13.563Z,20.50
2022-09-05T06:44:15.774Z,20.60
2022-09-05T06:46:55.119Z,21.60
2022-09-05T06:49:54.990Z,21.40
2022-09-05T06:53:14.417Z,21.90
2022-09-05T06:56:12.674Z,21.80
2022-09-05T06:59:26.967Z,19.90
2022-09-05T07:02:07.661Z,20.80
2022-09-05T07:05:24.838Z,21.90
2022-09-05T07:07:40.337Z,22.00
2022-09-05T07:10:37.281Z,21.40
2022-09-05T07:13:15.288Z,21.70
2022-09-05T07:15:55.695Z,22.20
2022-09-05T07:18:31.749Z,21.30
2022-09-05T07:21:17.370Z,21.00
2022-09-05T07:24:09.291Z,22.00
2022-09-05T07:26:52.662Z,22.30
2022-09-05T07:29:29.987Z,23.20
2022-09-05T07:32:00.630Z,23.00
2022-09-05T07:34:32.073Z,22.60
2022-09-05T07:37:15.859Z,22.90
2022-09-05T07:39:51.620Z,23.30
2022-09-05T07:42:25.948Z,23.50
2022-09-05T07:44:58.012Z,23.50
2022-09-05T07:47:31.580Z,23.50
2022-09-05T07:52:33.954Z,23.10
2022-09-05T07:56:54.031Z,22.80
2022-09-05T07:57:04.124Z,22.70
2022-09-05T07:58:49.907Z,23.30
2022-09-05T08:01:21.370Z,23.40
2022-09-05T08:04:02.487Z,23.10
2022-09-05T08:07:14.366Z,22.90
2022-09-05T08:10:09.365Z,22.90
2022-09-05T08:12:28.043Z,22.50
2022-09-05T08:15:10.301Z,22.60
2022-09-05T08:17:58.710Z,22.70
2022-09-05T08:20:33.528Z,22.30
2022-09-05T08:23:12.194Z,21.60
2022-09-05T08:25:57.638Z,22.50
2022-09-05T08:28:33.399Z,22.30
2022-09-05T08:31:12.830Z,23.30
2022-09-05T08:33:42.079Z,23.00
2022-09-05T08:36:17.296Z,22.60
2022-09-05T08:38:47.721Z,22.60
2022-09-05T08:41:23.724Z,21.80
2022-09-05T08:46:47.430Z,20.70
2022-09-05T08:47:21.549Z,20.50
2022-09-05T08:50:18.503Z,21.10
2022-09-05T08:52:58.396Z,21.20
2022-09-05T08:55:41.191Z,20.80
2022-09-05T08:58:47.589Z,20.50
2022-09-05T09:01:27.667Z,20.10
2022-09-05T09:04:14.141Z,20.00
2022-09-05T09:07:12.312Z,20.00
2022-09-05T09:10:07.226Z,19.80
2022-09-05T09:13:16.484Z,19.90
2022-09-05T09:15:56.792Z,20.60
2022-09-05T09:18:39.356Z,21.10
2022-09-05T09:21:25.280Z,21.00
2022-09-05T09:24:01.771Z,20.80
2022-09-05T09:26:34.212Z,20.90
2022-09-05T09:29:07.136Z,20.80
2022-09-05T09:32:06.820Z,20.50
2022-09-05T09:34:55.580Z,20.40
2022-09-05T09:38:06.971Z,20.20
2022-09-05T09:41:00.627Z,20.30
2022-09-05T09:43:40.347Z,20.10
2022-09-05T09:46:35.824Z,20.30
2022-09-05T09:49:37.795Z,20.30
2022-09-05T09:52:27.492Z,20.30
2022-09-05T09:55:41.114Z,19.90
2022-09-05T09:58:40.819Z,20.10
2022-09-05T10:01:36.454Z,20.00
2022-09-05T10:10:36.225Z,20.10
2022-09-05T10:10:46.526Z,20.20
2022-09-05T10:14:50.725Z,20.20
2022-09-05T10:17:36.827Z,20.30
2022-09-05T10:20:32.560Z,20.20
2022-09-05T10:23:34.283Z,20.20
2022-09-05T10:26:38.604Z,20.40
2022-09-05T10:29:36.760Z,20.30
2022-09-05T10:33:09.129Z,20.40
2022-09-05T10:35:16.996Z,20.50
2022-09-05T10:37:56.257Z,20.70
2022-09-05T10:40:27.798Z,20.90
2022-09-05T10:43:02.618Z,20.90
2022-09-05T10:45:41.845Z,20.80
2022-09-05T10:48:16.463Z,21.20
2022-09-05T10:50:48.902Z,21.40
2022-09-05T10:53:38.882Z,21.20
2022-09-05T10:56:14.918Z,21.30
2022-09-05T11:01:55.965Z,21.60
2022-09-05T11:02:26.777Z,22.10
2022-09-05T11:05:03.435Z,22.10
2022-09-05T11:07:41.058Z,22.60
2022-09-05T11:10:17.553Z,22.70
2022-09-05T11:13:08.618Z,22.70
2022-09-05T11:16:03.414Z,22.80
2022-09-05T11:18:57.198Z,22.90
2022-09-05T11:21:46.119Z,22.70
2022-09-05T11:24:35.466Z,23.10
2022-09-05T11:27:24.878Z,23.00
2022-09-05T11:29:58.406Z,23.00
2022-09-05T11:38:43.983Z,22.80
2022-09-05T11:39:48.207Z,22.90
2022-09-05T11:40:24.867Z,22.50
2022-09-05T11:42:11.012Z,22.30
2022-09-05T11:45:10.310Z,22.90
2022-09-05T11:48:18.935Z,22.80
2022-09-05T11:51:16.300Z,21.80
2022-09-05T11:54:26.717Z,21.80
2022-09-05T11:57:33.167Z,21.90
2022-09-05T12:00:31.187Z,22.20
2022-09-05T12:04:00.286Z,22.30
2022-09-05T12:06:30.788Z,21.90
2022-09-05T12:09:06.464Z,21.50
2022-09-05T12:11:52.277Z,21.50
2022-09-05T12:14:39.545Z,21.50
2022-09-05T12:17:34.994Z,21.30
2022-09-05T12:20:16.937Z,21.20
2022-09-05T12:22:54.095Z,21.10
2022-09-05T12:27:35.863Z,20.90
2022-09-05T12:29:32.717Z,21.00
2022-09-05T12:33:40.771Z,21.10
2022-09-05T12:36:06.950Z,21.00
2022-09-05T12:40:38.200Z,21.00
2022-09-05T12:41:37.080Z,21.00
2022-09-05T12:44:19.341Z,21.00
2022-09-05T12:46:26.402Z,20.90
2022-09-05T12:49:07.400Z,20.90
2022-09-05T12:51:44.980Z,20.80
2022-09-05T12:54:33.680Z,20.90
2022-09-05T13:00:43.865Z,21.00
2022-09-05T13:03:13.607Z,21.10
2022-09-05T13:03:28.791Z,21.00
2022-09-05T13:06:02.295Z,21.10
2022-09-05T13:08:59.116Z,21.10
2022-09-05T13:14:56.311Z,21.10
2022-09-05T13:14:58.833Z,21.10
2022-09-05T13:17:18.121Z,21.00
2022-09-05T13:19:57.621Z,20.90
2022-09-05T13:22:31.643Z,20.70
2022-09-05T13:25:08.625Z,20.60
2022-09-05T13:27:47.902Z,20.70
2022-09-05T13:33:00.387Z,20.70
2022-09-05T13:38:15.897Z,20.80
2022-09-05T13:38:19.750Z,20.90
2022-09-05T13:39:06.313Z,20.90
2022-09-05T13:41:38.114Z,21.00
2022-09-05T13:44:26.536Z,21.00
2022-09-05T13:47:00.869Z,20.90
2022-09-05T13:49:38.651Z,21.00
2022-09-05T13:52:26.433Z,20.90
2022-09-05T13:55:11.010Z,20.80
2022-09-05T13:57:46.973Z,20.90
2022-09-05T14:00:52.160Z,20.90
2022-09-05T14:03:54.923Z,20.80
2022-09-05T14:10:06.671Z,20.10
2022-09-05T14:12:42.465Z,19.80
2022-09-05T14:15:33.325Z,19.80
2022-09-05T14:18:20.561Z,19.90
2022-09-05T14:21:15.814Z,20.10
2022-09-05T14:23:56.056Z,20.20
2022-09-05T14:26:32.008Z,20.20
2022-09-05T14:29:07.347Z,20.30
2022-09-05T14:37:35.121Z,20.30
2022-09-05T14:37:51.597Z,20.20
2022-09-05T14:38:09.480Z,20.20
2022-09-05T14:41:33.394Z,20.20
2022-09-05T14:44:37.827Z,20.20
2022-09-05T14:47:34.896Z,20.20
2022-09-05T14:50:29.421Z,20.10
2022-09-05T14:56:59.741Z,19.90
2022-09-05T15:02:39.764Z,19.90
2022-09-05T15:02:58.675Z,19.90
2022-09-05T15:04:46.059Z,19.70
2022-09-05T15:07:21.422Z,19.40
2022-09-05T15:12:16.260Z,19.10
2022-09-05T15:13:00.608Z,19.20
2022-09-05T15:15:31.942Z,19.20
2022-09-05T15:18:06.561Z,19.20
2022-09-05T15:20:38.945Z,19.30
2022-09-05T15:23:16.637Z,19.30
2022-09-05T15:26:01.089Z,19.20
2022-09-05T15:28:37.511Z,19.20
2022-09-05T15:31:10.744Z,19.20
2022-09-05T15:33:41.124Z,19.30
2022-09-05T15:36:13.652Z,19.10
2022-09-05T15:38:56.094Z,19.20
2022-09-05T15:41:26.552Z,19.10
2022-09-05T15:44:00.127Z,19.10
2022-09-05T15:46:48.775Z,19.10
2022-09-05T15:49:37.083Z,19.10
2022-09-05T15:52:29.441Z,19.10
2022-09-05T15:55:10.187Z,19.10
2022-09-05T15:57:41.724Z,19.10
2022-09-05T16:00:39.219Z,19.00
2022-09-05T16:07:32.860Z,19.00
2022-09-05T16:10:45.940Z,18.90
2022-09-05T16:10:46.539Z,18.80
2022-09-05T16:12:48.987Z,18.70
2022-09-05T16:19:44.626Z,18.70
2022-09-05T16:23:32.505Z,18.50
2022-09-05T16:23:34.075Z,18.60
2022-09-05T16:24:59.707Z,18.40
2022-09-05T16:27:52.459Z,18.20
2022-09-05T16:30:31.724Z,18.10
2022-09-05T16:33:06.298Z,18.00
2022-09-05T16:35:38.067Z,17.90
2022-09-05T16:38:25.850Z,17.80
2022-09-05T16:41:24.782Z,17.80
2022-09-05T16:43:56.320Z,17.60
2022-09-05T16:46:31.456Z,17.40
2022-09-05T16:49:12.075Z,17.30
2022-09-05T16:51:50.163Z,17.10
2022-09-05T16:54:25.737Z,17.10
2022-09-05T16:57:01.436Z,16.90
2022-09-05T16:59:31.731Z,16.70
2022-09-05T17:02:07.887Z,16.60
2022-09-05T17:05:08.988Z,16.40
2022-09-05T17:07:56.899Z,16.20
2022-09-05T17:10:28.074Z,16.00
2022-09-05T17:12:57.990Z,15.90
2022-09-05T17:15:29.636Z,15.70
2022-09-05T17:18:20.876Z,15.60
2022-09-05T17:20:58.005Z,15.40
2022-09-05T17:29:03.319Z,15.30
2022-09-05T17:29:36.097Z,15.10
2022-09-05T17:32:48.424Z,14.80
2022-09-05T17:35:42.541Z,14.50
2022-09-05T17:38:34.723Z,14.50
2022-09-05T17:41:31.523Z,14.30
2022-09-05T17:44:07.695Z,14.20
2022-09-05T17:46:47.270Z,14.10
2022-09-05T17:49:40.472Z,13.90
2022-09-05T17:52:20.858Z,13.90
2022-09-05T17:54:52.396Z,13.80
2022-09-05T17:57:41.372Z,13.70
2022-09-05T18:00:49.547Z,13.60
2022-09-05T18:04:16.700Z,13.50
2022-09-05T18:06:59.474Z,13.40
2022-09-05T18:09:58.976Z,13.30
2022-09-05T18:13:31.030Z,13.20
2022-09-05T18:16:10.816Z,13.10
2022-09-05T18:19:33.702Z,13.00
2022-09-05T18:21:48.213Z,13.10
2022-09-05T18:24:33.348Z,12.80
2022-09-05T18:28:03.114Z,12.80
2022-09-05T18:30:12.011Z,12.70
2022-09-05T18:32:45.075Z,12.60
2022-09-05T18:35:36.714Z,12.50
2022-09-05T18:38:52.145Z,12.30
2022-09-05T18:41:22.079Z,12.30
2022-09-05T18:44:12.265Z,12.20
2022-09-05T18:46:46.826Z,12.20
2022-09-05T18:50:25.965Z,12.10
2022-09-05T18:52:14.666Z,12.10
2022-09-05T18:54:44.597Z,11.90
2022-09-05T18:57:31.263Z,11.90
2022-09-05T19:00:10.214Z,11.80
2022-09-05T19:02:51.541Z,11.70
2022-09-05T19:05:38.869Z,11.70
2022-09-05T19:08:28.917Z,11.60
2022-09-05T19:10:59.909Z,11.60
2022-09-05T19:13:33.285Z,11.50
2022-09-05T19:16:42.602Z,11.40
2022-09-05T19:19:15.917Z,11.40
2022-09-05T19:22:05.500Z,11.30
2022-09-05T19:24:45.449Z,11.30
2022-09-05T19:30:28.393Z,11.20
2022-09-05T19:36:58.521Z,11.10
2022-09-05T19:37:05.311Z,11.00
2022-09-05T19:37:06.457Z,11.10
2022-09-05T19:39:23.177Z,11.00
2022-09-05T19:47:25.171Z,11.00
2022-09-05T19:47:36.391Z,11.00
2022-09-05T19:47:55.644Z,11.00
2022-09-05T19:50:22.112Z,11.20
2022-09-05T19:52:53.299Z,11.30
2022-09-05T19:55:24.866Z,11.20
2022-09-05T19:58:19.207Z,11.20
2022-09-05T20:01:00.832Z,11.20
2022-09-05T20:03:38.631Z,11.10
2022-09-05T20:06:30.170Z,11.10
2022-09-05T20:09:10.685Z,11.10
2022-09-05T20:11:46.419Z,11.30
2022-09-05T20:14:23.248Z,11.20
2022-09-05T20:16:53.371Z,11.10
2022-09-05T20:19:30.892Z,11.10
2022-09-05T20:22:12.800Z,11.10
2022-09-05T20:24:51.452Z,11.10
2022-09-05T20:27:27.086Z,11.20
2022-09-05T20:30:00.261Z,11.10
2022-09-05T20:32:39.919Z,11.00
2022-09-05T20:38:20.457Z,11.10
2022-09-05T20:43:24.765Z,10.90
2022-09-05T20:43:28.822Z,10.80
2022-09-05T20:43:59.819Z,10.70
2022-09-05T20:50:34.100Z,10.90
2022-09-05T20:54:14.692Z,10.80
2022-09-05T20:54:22.587Z,10.80
2022-09-05T20:55:41.242Z,10.70
2022-09-05T20:58:12.448Z,10.60
2022-09-05T21:00:46.331Z,10.60
2022-09-05T21:03:36.793Z,10.50
2022-09-05T21:06:23.623Z,10.50
2022-09-05T21:08:56.219Z,10.40
2022-09-05T21:11:33.770Z,10.40
2022-09-05T21:14:04.985Z,10.40
2022-09-05T21:16:36.736Z,10.30
2022-09-05T21:19:05.173Z,10.30
2022-09-05T21:21:35.748Z,10.30
2022-09-05T21:24:18.172Z,10.30
2022-09-05T21:26:50.973Z,10.20
2022-09-05T21:29:27.624Z,10.10
2022-09-05T21:32:08.535Z,10.10
2022-09-05T21:34:45.022Z,10.00
2022-09-05T21:37:15.519Z,10.00
2022-09-05T21:39:59.518Z,10.00
2022-09-05T21:45:35.356Z,10.00
2022-09-05T21:47:50.095Z,9.90
2022-09-05T21:48:08.526Z,9.90
2022-09-05T21:50:41.023Z,9.80
2022-09-05T21:54:31.787Z,9.80
2022-09-05T21:59:22.793Z,9.70
2022-09-05T21:59:29.610Z,9.70
2022-09-05T22:01:52.099Z,9.60
2022-09-05T22:04:22.166Z,9.60
2022-09-05T22:06:53.146Z,9.50
2022-09-05T22:09:23.033Z,9.50
